createdAt,value
2022-09-13T00:01:55.920Z,44.88
2022-09-13T00:04:23.522Z,44.63
2022-09-13T00:06:50.777Z,44.84
2022-09-13T00:09:18.085Z,44.41
2022-09-13T00:11:45.600Z,44.55
2022-09-13T00:14:12.780Z,44.67
2022-09-13T00:16:40.086Z,44.64
2022-09-13T00:19:07.613Z,45.07
2022-09-13T00:21:34.805Z,44.71
2022-09-13T00:24:02.218Z,44.80
2022-09-13T00:26:29.681Z,44.72
2022-09-13T00:28:57.403Z,44.98
2022-09-13T00:31:25.333Z,45.79
2022-09-13T00:33:52.915Z,45.90
2022-09-13T00:36:20.130Z,45.79
2022-09-13T00:38:47.349Z,45.54
2022-09-13T00:41:15.867Z,46.05
2022-09-13T00:43:47.818Z,47.29
2022-09-13T00:46:20.833Z,46.88
2022-09-13T00:48:48.216Z,47.46
2022-09-13T00:51:15.683Z,47.39
2022-09-13T00:53:44.264Z,47.04
2022-09-13T00:56:22.764Z,46.54
2022-09-13T00:58:52.002Z,46.55
2022-09-13T01:01:19.582Z,46.47
2022-09-13T01:03:46.886Z,46.25
2022-09-13T01:06:18.420Z,46.62
2022-09-13T01:08:46.547Z,46.53
2022-09-13T01:11:17.866Z,46.40
2022-09-13T01:13:45.437Z,46.04
2022-09-13T01:16:12.744Z,45.86
2022-09-13T01:18:40.075Z,46.68
2022-09-13T01:21:26.265Z,46.37
2022-09-13T01:24:12.390Z,46.48
2022-09-13T01:26:45.702Z,46.75
2022-09-13T01:29:28.435Z,46.56
2022-09-13T01:31:58.766Z,46.64
2022-09-13T01:34:33.897Z,46.78
2022-09-13T01:37:15.741Z,46.93
2022-09-13T01:40:12.989Z,46.48
2022-09-13T01:42:47.231Z,46.77
2022-09-13T01:45:23.757Z,46.41
2022-09-13T01:47:56.807Z,46.58
2022-09-13T01:50:35.028Z,46.52
2022-09-13T01:53:19.487Z,46.67
2022-09-13T01:55:49.019Z,46.03
2022-09-13T01:58:28.742Z,45.88
2022-09-13T02:01:18.379Z,45.80
2022-09-13T02:03:48.620Z,46.19
2022-09-13T02:06:18.206Z,47.36
2022-09-13T02:08:46.606Z,46.71
2022-09-13T02:11:14.425Z,46.51
2022-09-13T02:13:43.654Z,46.52
2022-09-13T02:16:13.054Z,46.53
2022-09-13T02:18:41.318Z,46.08
2022-09-13T02:21:29.069Z,46.18
2022-09-13T02:24:01.624Z,46.19
2022-09-13T02:26:29.447Z,46.55
2022-09-13T02:28:57.788Z,46.88
2022-09-13T02:31:26.843Z,46.72
2022-09-13T02:33:55.951Z,46.99
2022-09-13T02:36:24.350Z,47.22
2022-09-13T02:38:55.833Z,46.87
2022-09-13T02:41:27.567Z,46.85
2022-09-13T02:44:01.404Z,47.11
2022-09-13T02:46:44.080Z,46.79
2022-09-13T02:49:41.124Z,46.75
2022-09-13T02:52:14.166Z,46.59
2022-09-13T02:54:50.586Z,46.32
2022-09-13T02:57:22.455Z,46.53
2022-09-13T02:59:49.655Z,46.18
2022-09-13T03:02:17.231Z,46.17
2022-09-13T03:04:44.725Z,46.11
2022-09-13T03:07:12.380Z,46.15
2022-09-13T03:09:40.847Z,46.32
2022-09-13T03:12:30.139Z,46.43
2022-09-13T03:14:57.392Z,45.92
2022-09-13T03:17:31.050Z,45.67
2022-09-13T03:20:10.900Z,45.84
2022-09-13T03:22:57.357Z,45.68
2022-09-13T03:25:28.042Z,45.65
2022-09-13T03:28:11.757Z,46.03
2022-09-13T03:30:39.090Z,45.76
2022-09-13T03:33:08.070Z,47.03
2022-09-13T03:35:37.789Z,46.13
2022-09-13T03:38:04.954Z,47.07
2022-09-13T03:40:40.341Z,46.73
2022-09-13T03:43:14.645Z,46.59
2022-09-13T03:45:49.860Z,47.04
2022-09-13T03:48:17.315Z,46.77
2022-09-13T03:50:45.890Z,46.66
2022-09-13T03:53:14.043Z,46.18
2022-09-13T03:55:42.549Z,46.57
2022-09-13T03:58:13.900Z,46.80
2022-09-13T04:00:41.469Z,46.30
2022-09-13T04:03:09.333Z,45.84
2022-09-13T04:05:36.609Z,45.94
2022-09-13T04:08:05.757Z,46.03
2022-09-13T04:10:33.513Z,46.50
2022-09-13T04:13:00.789Z,46.04
2022-09-13T04:15:28.564Z,46.38
2022-09-13T04:17:56.115Z,45.89
2022-09-13T04:20:25.080Z,45.89
2022-09-13T04:22:55.771Z,46.33
2022-09-13T04:25:23.478Z,45.65
2022-09-13T04:27:54.105Z,45.30
2022-09-13T04:30:22.001Z,45.39
2022-09-13T04:32:49.451Z,45.21
2022-09-13T04:35:18.021Z,45.95
2022-09-13T04:37:45.568Z,45.68
2022-09-13T04:40:14.029Z,45.52
2022-09-13T04:42:41.361Z,45.85
2022-09-13T04:45:08.820Z,46.36
2022-09-13T04:47:36.291Z,47.09
2022-09-13T04:50:03.836Z,46.39
2022-09-13T04:52:31.038Z,45.79
2022-09-13T04:55:01.563Z,45.60
2022-09-13T04:57:28.980Z,46.74
2022-09-13T04:59:56.170Z,46.48
2022-09-13T05:02:23.692Z,45.52
2022-09-13T05:04:51.074Z,46.23
2022-09-13T05:07:18.324Z,45.49
2022-09-13T05:09:45.856Z,45.48
2022-09-13T05:12:13.262Z,47.22
2022-09-13T05:14:40.516Z,46.43
2022-09-13T05:17:08.086Z,46.50
2022-09-13T05:19:35.472Z,45.55
2022-09-13T05:22:03.060Z,43.55
2022-09-13T05:24:30.552Z,42.93
2022-09-13T05:26:57.756Z,42.63
2022-09-13T05:29:24.942Z,42.99
2022-09-13T05:31:52.572Z,42.89
2022-09-13T05:34:19.921Z,43.13
2022-09-13T05:36:51.713Z,43.73
2022-09-13T05:39:36.277Z,44.27
2022-09-13T05:42:09.420Z,44.22
2022-09-13T05:44:36.905Z,44.48
2022-09-13T05:47:04.236Z,44.94
2022-09-13T05:49:31.434Z,45.31
2022-09-13T05:51:58.956Z,45.33
2022-09-13T05:54:26.148Z,45.76
2022-09-13T05:56:57.446Z,45.81
2022-09-13T05:59:25.094Z,46.01
2022-09-13T06:01:52.356Z,45.44
2022-09-13T06:04:19.925Z,46.19
2022-09-13T06:06:47.191Z,46.73
2022-09-13T06:09:14.386Z,46.00
2022-09-13T06:11:41.846Z,48.46
2022-09-13T06:14:09.617Z,45.03
2022-09-13T06:16:37.139Z,47.08
2022-09-13T06:19:04.705Z,44.96
2022-09-13T06:21:31.951Z,44.59
2022-09-13T06:23:59.235Z,44.70
2022-09-13T06:26:27.821Z,44.61
2022-09-13T06:28:55.886Z,44.02
2022-09-13T06:31:24.584Z,45.32
2022-09-13T06:33:57.409Z,46.35
2022-09-13T06:36:24.839Z,45.74
2022-09-13T06:38:52.340Z,43.70
2022-09-13T06:41:20.510Z,45.28
2022-09-13T06:43:48.038Z,45.33
2022-09-13T06:46:19.459Z,45.13
2022-09-13T06:48:49.026Z,44.71
2022-09-13T06:51:17.987Z,43.72
2022-09-13T06:53:46.692Z,41.88
2022-09-13T06:56:14.872Z,44.45
2022-09-13T06:58:43.581Z,44.11
2022-09-13T07:01:14.894Z,42.84
2022-09-13T07:03:43.686Z,44.11
2022-09-13T07:06:11.872Z,40.72
2022-09-13T07:08:39.521Z,41.29
2022-09-13T07:11:07.189Z,41.48
2022-09-13T07:13:34.451Z,39.06
2022-09-13T07:16:02.572Z,39.73
2022-09-13T07:18:30.246Z,40.99
2022-09-13T07:21:01.713Z,41.75
2022-09-13T07:23:29.661Z,39.28
2022-09-13T07:26:01.925Z,38.93
2022-09-13T07:28:35.095Z,38.99
2022-09-13T07:31:10.116Z,41.22
2022-09-13T07:33:38.003Z,38.97
2022-09-13T07:36:08.627Z,39.21
2022-09-13T07:38:36.381Z,39.61
2022-09-13T07:41:06.548Z,39.15
2022-09-13T07:43:34.628Z,40.83
2022-09-13T07:46:05.816Z,40.11
2022-09-13T07:48:34.178Z,39.74
2022-09-13T07:51:02.884Z,39.93
2022-09-13T07:53:30.186Z,41.61
2022-09-13T07:56:07.493Z,39.63
2022-09-13T07:58:35.451Z,39.73
2022-09-13T08:01:07.471Z,40.11
2022-09-13T08:03:35.393Z,40.60
2022-09-13T08:06:03.135Z,40.08
2022-09-13T08:08:30.592Z,40.41
2022-09-13T08:10:59.189Z,40.45
2022-09-13T08:13:26.760Z,39.31
2022-09-13T08:15:54.000Z,41.25
2022-09-13T08:18:21.541Z,40.45
2022-09-13T08:20:48.716Z,40.19
2022-09-13T08:23:15.947Z,40.46
2022-09-13T08:25:43.402Z,40.09
2022-09-13T08:28:14.857Z,41.02
2022-09-13T08:30:43.597Z,40.58
2022-09-13T08:33:11.389Z,40.92
2022-09-13T08:35:38.832Z,42.04
2022-09-13T08:38:06.253Z,40.28
2022-09-13T08:40:34.648Z,41.43
2022-09-13T08:43:01.770Z,40.01
2022-09-13T08:45:28.984Z,42.57
2022-09-13T08:47:57.167Z,40.60
2022-09-13T08:50:28.325Z,39.70
2022-09-13T08:53:04.665Z,39.61
2022-09-13T08:55:37.925Z,38.24
2022-09-13T08:58:09.267Z,38.77
2022-09-13T09:00:40.794Z,37.27
2022-09-13T09:03:11.041Z,36.65
2022-09-13T09:05:44.462Z,38.12
2022-09-13T09:08:25.335Z,36.88
2022-09-13T09:10:53.469Z,37.66
2022-09-13T09:13:31.760Z,37.55
2022-09-13T09:16:19.625Z,39.63
2022-09-13T09:18:47.101Z,38.23
2022-09-13T09:21:17.893Z,38.93
2022-09-13T09:23:52.117Z,37.41
2022-09-13T09:26:19.642Z,37.72
2022-09-13T09:28:57.187Z,38.25
2022-09-13T09:31:24.790Z,37.39
2022-09-13T09:33:52.007Z,37.54
2022-09-13T09:36:40.197Z,36.47
2022-09-13T09:39:10.267Z,35.69
2022-09-13T09:41:38.482Z,37.38
2022-09-13T09:44:10.938Z,37.07
2022-09-13T09:46:38.827Z,37.29
2022-09-13T09:49:27.762Z,38.22
2022-09-13T09:51:56.510Z,37.36
2022-09-13T09:54:24.945Z,36.20
2022-09-13T09:56:53.040Z,35.72
2022-09-13T09:59:28.628Z,36.75
2022-09-13T10:01:57.834Z,36.29
2022-09-13T10:04:25.904Z,34.92
2022-09-13T10:07:15.620Z,35.30
2022-09-13T10:09:50.874Z,36.13
2022-09-13T10:12:25.602Z,36.27
2022-09-13T10:14:59.069Z,36.91
2022-09-13T10:17:26.668Z,36.08
2022-09-13T10:19:54.348Z,35.12
2022-09-13T10:22:22.512Z,34.30
2022-09-13T10:24:50.726Z,34.08
2022-09-13T10:27:33.185Z,35.11
2022-09-13T10:30:01.024Z,34.53
2022-09-13T10:32:28.567Z,33.83
2022-09-13T10:34:55.941Z,33.13
2022-09-13T10:37:25.249Z,32.46
2022-09-13T10:40:05.368Z,33.15
2022-09-13T10:42:32.640Z,31.98
2022-09-13T10:45:01.365Z,31.63
2022-09-13T10:47:37.877Z,31.71
2022-09-13T10:50:19.129Z,32.00
2022-09-13T10:52:56.272Z,33.37
2022-09-13T10:55:25.797Z,31.98
2022-09-13T10:57:54.166Z,31.92
2022-09-13T11:00:22.918Z,33.01
2022-09-13T11:03:09.256Z,31.59
2022-09-13T11:05:39.823Z,31.97
2022-09-13T11:08:12.722Z,31.87
2022-09-13T11:10:42.969Z,32.82
2022-09-13T11:13:19.718Z,33.26
2022-09-13T11:15:53.711Z,31.73
2022-09-13T11:18:37.757Z,31.56
2022-09-13T11:21:07.997Z,31.22
2022-09-13T11:23:54.030Z,30.59
2022-09-13T11:26:24.231Z,31.56
2022-09-13T11:28:58.810Z,30.15
2022-09-13T11:31:30.433Z,31.07
2022-09-13T11:34:13.862Z,31.21
2022-09-13T11:36:50.204Z,31.46
2022-09-13T11:39:30.983Z,31.79
2022-09-13T11:42:02.478Z,31.91
2022-09-13T11:44:45.663Z,31.07
2022-09-13T11:47:23.071Z,31.44
2022-09-13T11:50:02.934Z,31.08
2022-09-13T11:52:30.159Z,31.31
2022-09-13T11:55:00.716Z,31.81
2022-09-13T11:57:33.171Z,32.15
2022-09-13T12:00:08.998Z,31.32
2022-09-13T12:02:40.718Z,30.57
2022-09-13T12:05:23.031Z,31.82
2022-09-13T12:08:02.752Z,31.11
2022-09-13T12:10:34.155Z,31.68
2022-09-13T12:13:02.220Z,31.20
2022-09-13T12:15:32.988Z,31.33
2022-09-13T12:18:10.279Z,31.58
2022-09-13T12:20:42.570Z,31.05
2022-09-13T12:23:14.810Z,30.62
2022-09-13T12:25:45.905Z,30.90
2022-09-13T12:28:16.689Z,31.60
2022-09-13T12:30:49.177Z,31.59
2022-09-13T12:33:16.443Z,30.91
2022-09-13T12:36:02.827Z,32.34
2022-09-13T12:38:36.248Z,32.84
2022-09-13T12:41:04.960Z,32.63
2022-09-13T12:43:51.147Z,32.40
2022-09-13T12:46:28.040Z,31.99
2022-09-13T12:49:10.006Z,32.15
2022-09-13T12:51:42.715Z,31.80
2022-09-13T12:54:22.383Z,31.28
2022-09-13T12:57:08.938Z,31.07
2022-09-13T12:59:39.545Z,31.02
2022-09-13T13:02:42.377Z,30.85
2022-09-13T13:05:38.737Z,31.96
2022-09-13T13:08:27.070Z,33.30
2022-09-13T13:11:07.954Z,32.32
2022-09-13T13:13:39.261Z,32.85
2022-09-13T13:16:25.623Z,32.81
2022-09-13T13:18:53.940Z,32.63
2022-09-13T13:21:27.631Z,33.63
2022-09-13T13:24:14.116Z,32.75
2022-09-13T13:26:47.531Z,33.08
2022-09-13T13:29:16.685Z,31.35
2022-09-13T13:32:04.358Z,31.52
2022-09-13T13:34:35.203Z,31.52
2022-09-13T13:37:06.494Z,32.64
2022-09-13T13:39:54.270Z,33.30
2022-09-13T13:42:21.572Z,33.03
2022-09-13T13:44:54.871Z,32.70
2022-09-13T13:47:22.079Z,31.71
2022-09-13T13:49:50.389Z,32.00
2022-09-13T13:52:23.715Z,30.99
2022-09-13T13:54:51.723Z,31.61
2022-09-13T13:57:32.168Z,31.18
2022-09-13T14:00:12.144Z,32.02
2022-09-13T14:02:53.533Z,32.04
2022-09-13T14:05:41.300Z,32.56
2022-09-13T14:08:20.958Z,31.14
2022-09-13T14:10:50.608Z,32.67
2022-09-13T14:13:20.976Z,31.72
2022-09-13T14:16:01.304Z,32.52
2022-09-13T14:18:28.504Z,33.65
2022-09-13T14:21:00.224Z,33.13
2022-09-13T14:23:27.633Z,33.16
2022-09-13T14:25:55.793Z,30.93
2022-09-13T14:28:23.635Z,30.49
2022-09-13T14:30:54.993Z,31.03
2022-09-13T14:33:31.052Z,31.96
2022-09-13T14:36:03.880Z,31.89
2022-09-13T14:38:35.794Z,32.16
2022-09-13T14:41:16.624Z,30.82
2022-09-13T14:43:44.663Z,30.84
2022-09-13T14:46:13.770Z,30.33
2022-09-13T14:48:42.446Z,31.18
2022-09-13T14:51:14.581Z,31.00
2022-09-13T14:53:41.907Z,30.75
2022-09-13T14:56:13.564Z,31.75
2022-09-13T14:58:53.997Z,30.46
2022-09-13T15:01:31.559Z,31.79
2022-09-13T15:03:59.592Z,31.57
2022-09-13T15:06:31.795Z,31.32
2022-09-13T15:09:11.595Z,31.52
2022-09-13T15:11:41.103Z,30.82
2022-09-13T15:14:21.127Z,31.07
2022-09-13T15:16:52.873Z,31.08
2022-09-13T15:19:23.113Z,31.36
2022-09-13T15:21:50.642Z,31.77
2022-09-13T15:24:29.464Z,31.95
2022-09-13T15:27:04.370Z,31.63
2022-09-13T15:29:34.898Z,32.09
2022-09-13T15:32:02.587Z,32.56
2022-09-13T15:34:29.988Z,32.01
2022-09-13T15:37:00.015Z,31.95
2022-09-13T15:39:27.786Z,32.07
2022-09-13T15:41:56.552Z,32.10
2022-09-13T15:44:23.893Z,32.33
2022-09-13T15:46:54.800Z,32.41
2022-09-13T15:49:22.743Z,33.20
2022-09-13T15:51:53.915Z,33.12
2022-09-13T15:54:22.966Z,33.46
2022-09-13T15:56:53.117Z,33.05
2022-09-13T15:59:21.006Z,33.36
2022-09-13T16:01:49.469Z,33.46
2022-09-13T16:04:17.058Z,34.01
2022-09-13T16:06:44.526Z,33.46
2022-09-13T16:09:22.124Z,33.42
2022-09-13T16:11:50.235Z,33.39
2022-09-13T16:14:18.017Z,33.19
2022-09-13T16:16:45.719Z,33.16
2022-09-13T16:19:13.962Z,33.25
2022-09-13T16:21:42.949Z,34.08
2022-09-13T16:24:10.226Z,34.19
2022-09-13T16:26:38.099Z,33.92
2022-09-13T16:29:05.601Z,33.79
2022-09-13T16:31:33.000Z,34.41
2022-09-13T16:34:00.617Z,34.73
2022-09-13T16:36:28.930Z,34.58
2022-09-13T16:38:56.632Z,34.65
2022-09-13T16:41:24.162Z,34.89
2022-09-13T16:43:51.529Z,35.19
2022-09-13T16:46:18.879Z,35.41
2022-09-13T16:48:46.454Z,35.90
2022-09-13T16:51:13.791Z,36.19
2022-09-13T16:53:41.840Z,35.95
2022-09-13T16:56:11.058Z,35.64
2022-09-13T16:58:38.891Z,35.41
2022-09-13T17:01:06.776Z,35.61
2022-09-13T17:03:36.095Z,36.25
2022-09-13T17:06:07.934Z,36.25
2022-09-13T17:08:36.196Z,36.33
2022-09-13T17:11:05.249Z,36.47
2022-09-13T17:13:32.613Z,36.13
2022-09-13T17:16:00.240Z,36.14
2022-09-13T17:18:27.649Z,35.94
2022-09-13T17:20:54.984Z,35.66
2022-09-13T17:23:22.545Z,36.22
2022-09-13T17:25:49.899Z,36.40
2022-09-13T17:28:17.512Z,36.43
2022-09-13T17:30:47.840Z,35.93
2022-09-13T17:33:15.405Z,35.69
2022-09-13T17:35:43.645Z,36.04
2022-09-13T17:38:11.825Z,35.97
2022-09-13T17:40:39.188Z,36.08
2022-09-13T17:43:06.549Z,36.01
2022-09-13T17:45:34.197Z,36.12
2022-09-13T17:48:01.635Z,36.18
2022-09-13T17:50:33.517Z,36.18
2022-09-13T17:53:01.208Z,36.27
2022-09-13T17:55:28.621Z,36.40
2022-09-13T17:57:57.695Z,37.50
2022-09-13T18:00:26.401Z,37.50
2022-09-13T18:02:57.667Z,37.90
2022-09-13T18:05:25.104Z,38.07
2022-09-13T18:07:53.342Z,38.73
2022-09-13T18:10:49.182Z,38.91
2022-09-13T18:13:15.292Z,39.35
2022-09-13T18:15:46.469Z,40.72
2022-09-13T18:18:14.211Z,40.69
2022-09-13T18:20:44.872Z,41.22
2022-09-13T18:23:12.409Z,41.25
2022-09-13T18:25:39.736Z,41.14
2022-09-13T18:28:08.285Z,41.35
2022-09-13T18:30:37.570Z,41.23
2022-09-13T18:33:08.621Z,42.09
2022-09-13T18:35:39.329Z,42.31
2022-09-13T18:38:08.761Z,42.06
2022-09-13T18:40:36.382Z,42.32
2022-09-13T18:43:05.397Z,42.01
2022-09-13T18:45:33.872Z,41.90
2022-09-13T18:48:01.183Z,41.23
2022-09-13T18:50:29.075Z,42.09
2022-09-13T18:52:56.470Z,41.42
2022-09-13T18:55:25.720Z,41.93
2022-09-13T18:57:53.405Z,41.39
2022-09-13T19:00:22.487Z,42.25
2022-09-13T19:03:11.421Z,42.33
2022-09-13T19:05:40.817Z,42.23
2022-09-13T19:08:09.383Z,42.20
2022-09-13T19:10:37.435Z,42.62
2022-09-13T19:13:06.556Z,42.15
2022-09-13T19:15:33.911Z,42.41
2022-09-13T19:18:01.275Z,42.14
2022-09-13T19:20:28.823Z,42.45
2022-09-13T19:22:58.193Z,42.86
2022-09-13T19:25:28.081Z,43.08
2022-09-13T19:27:55.628Z,42.99
2022-09-13T19:30:22.892Z,43.07
2022-09-13T19:32:50.152Z,43.60
2022-09-13T19:35:18.312Z,43.85
2022-09-13T19:37:45.588Z,43.93
2022-09-13T19:40:14.322Z,44.16
2022-09-13T19:42:42.088Z,44.29
2022-09-13T19:45:11.017Z,44.39
2022-09-13T19:50:26.920Z,44.64
2022-09-13T19:52:54.150Z,44.72
2022-09-13T19:55:21.447Z,44.87
2022-09-13T19:57:48.943Z,44.72
2022-09-13T20:00:16.241Z,44.84
2022-09-13T20:02:43.841Z,45.20
2022-09-13T20:05:11.225Z,45.39
2022-09-13T20:07:38.566Z,45.11
2022-09-13T20:10:06.492Z,45.13
2022-09-13T20:12:35.990Z,45.20
2022-09-13T20:15:03.363Z,45.24
2022-09-13T20:17:31.080Z,45.57
2022-09-13T20:19:58.479Z,45.27
2022-09-13T20:22:25.702Z,45.74
2022-09-13T20:24:54.156Z,45.19
2022-09-13T20:27:21.822Z,45.48
2022-09-13T20:29:49.210Z,45.46
2022-09-13T20:32:17.002Z,45.45
2022-09-13T20:34:44.298Z,45.51
2022-09-13T20:37:12.393Z,45.84
2022-09-13T20:39:40.443Z,46.03
2022-09-13T20:42:08.828Z,45.84
2022-09-13T20:44:36.193Z,46.03
2022-09-13T20:47:03.908Z,46.13
2022-09-13T20:49:31.257Z,46.21
2022-09-13T20:51:59.269Z,46.90
2022-09-13T20:54:26.806Z,46.62
2022-09-13T20:56:54.301Z,46.66
2022-09-13T20:59:22.720Z,46.34
2022-09-13T21:01:50.314Z,46.96
2022-09-13T21:04:17.661Z,46.58
2022-09-13T21:07:03.649Z,46.27
2022-09-13T21:09:32.534Z,47.79
2022-09-13T21:12:01.276Z,46.62
2022-09-13T21:14:32.292Z,45.97
2022-09-13T21:16:59.935Z,46.12
2022-09-13T21:19:27.230Z,45.75
2022-09-13T21:21:55.088Z,45.28
2022-09-13T21:24:22.678Z,45.58
2022-09-13T21:26:49.912Z,46.13
2022-09-13T21:29:17.156Z,45.35
2022-09-13T21:31:44.726Z,45.15
2022-09-13T21:34:16.333Z,45.56
2022-09-13T21:36:43.925Z,45.64
2022-09-13T21:39:12.542Z,46.09
2022-09-13T21:41:39.768Z,46.14
2022-09-13T21:44:07.161Z,46.01
2022-09-13T21:46:35.150Z,46.53
2022-09-13T21:49:03.384Z,46.26
2022-09-13T21:51:35.015Z,46.21
2022-09-13T21:54:05.571Z,46.52
2022-09-13T21:56:34.752Z,48.10
2022-09-13T21:59:02.463Z,48.03
2022-09-13T22:01:31.709Z,47.88
2022-09-13T22:03:59.674Z,46.87
2022-09-13T22:06:30.291Z,46.89
2022-09-13T22:09:01.873Z,46.16
2022-09-13T22:11:30.261Z,45.91
2022-09-13T22:13:57.891Z,46.16
2022-09-13T22:16:26.651Z,45.91
2022-09-13T22:18:55.705Z,45.96
2022-09-13T22:21:24.088Z,46.19
2022-09-13T22:23:51.689Z,46.27
2022-09-13T22:26:20.593Z,46.61
2022-09-13T22:28:47.975Z,46.95
2022-09-13T22:31:17.646Z,46.89
2022-09-13T22:33:44.934Z,47.17
2022-09-13T22:36:13.600Z,47.41
2022-09-13T22:38:41.720Z,47.49
2022-09-13T22:41:14.959Z,47.86
2022-09-13T22:43:43.160Z,48.05
2022-09-13T22:46:14.495Z,48.34
2022-09-13T22:48:41.981Z,48.63
2022-09-13T22:51:10.525Z,48.54
2022-09-13T22:53:38.567Z,48.40
2022-09-13T22:56:10.419Z,48.64
2022-09-13T22:58:38.107Z,48.31
2022-09-13T23:01:06.496Z,47.99
2022-09-13T23:03:37.328Z,50.67
2022-09-13T23:06:05.198Z,48.80
2022-09-13T23:08:33.229Z,48.94
2022-09-13T23:11:10.457Z,49.17
2022-09-13T23:13:38.051Z,47.89
2022-09-13T23:16:06.005Z,48.55
2022-09-13T23:18:33.771Z,48.21
2022-09-13T23:21:01.963Z,47.55
2022-09-13T23:23:29.165Z,48.05
2022-09-13T23:26:02.814Z,48.05
2022-09-13T23:28:30.998Z,47.69
2022-09-13T23:31:08.194Z,47.63
2022-09-13T23:33:37.478Z,47.66
2022-09-13T23:36:05.024Z,48.13
2022-09-13T23:38:32.239Z,48.05
2022-09-13T23:40:59.835Z,47.81
2022-09-13T23:43:27.288Z,48.13
2022-09-13T23:45:54.643Z,47.83
2022-09-13T23:48:22.433Z,47.82
2022-09-13T23:50:56.978Z,48.04
2022-09-13T23:53:24.633Z,48.13
2022-09-13T23:55:52.043Z,48.32
2022-09-13T23:58:19.261Z,48.38
